Accueil
METAR-TAF:

METAR-TAF

Aéroports :

Hua Hin, Thaïlande

latitude: 12-35N, longitude: 099-57E, altitude: 5 m

Observation

Le bulletin a été fait il y a 4 heures et 30 minutes, à 11:00 UTC
Vent 11 kt de sud/sud-est
Température 29°C
Humidité 74%
Pression 1007 hPa
Visibilité 10 km ou plus
Quelques nuages à une hauteur de 4500 ft

METAR: VTPH 261100Z 15011KT 9999 FEW045 29/24 Q1007 NOSIG

Heure: 22:30 (15:30 UTC)

Prévision

Le bulletin a été fait il y a 4 heures et 30 minutes, à 11:00 UTC
Prévision valable du 26 à 12 UTC au 27 à 12 UTC
Vent 5 kt de ouest/sud-ouest
Visibilité 10 km ou plus
Quelques nuages à une hauteur de 3000 ft
Evoluant progressivement
du 27 à 02 UTC au 27 à 04 UTC
Vent 8 kt de sud-est

TAF: VTPH 261100Z 2612/2712 24005KT 9999 FEW030 BECMG 2702/2704 14008KT

Observations et prévisions météorologiques de plus de 4000 aéroports (messages METAR et TAF).

Les stations disponibles sont représentées par des disques jaunes et rouges sur la carte.

Passer la souris dessus pour voir le nom de la station.

Cliquer dessus pour voir les observations et prévisions météorologiques.

Pour changer de carte: cliquez sur les boutons verts avec une croix noire pour zoomer, sur le bouton vert avec un tiret pour effectuer un zoom arrière, ou sur les flèches vertes pour les cartes adjacentes.


METAR-TAF: